createdAt,value
2023-05-20T00:02:13.313Z,3.00
2023-05-20T00:04:42.353Z,2.70
2023-05-20T00:07:09.588Z,2.50
2023-05-20T00:09:39.517Z,3.20
2023-05-20T00:12:06.776Z,2.90
2023-05-20T00:14:33.757Z,3.10
2023-05-20T00:17:00.802Z,3.10
2023-05-20T00:19:27.947Z,2.70
2023-05-20T00:21:57.683Z,2.90
2023-05-20T00:24:25.129Z,3.10
2023-05-20T00:26:52.139Z,2.50
2023-05-20T00:29:19.148Z,2.60
2023-05-20T00:31:46.250Z,2.80
2023-05-20T00:34:13.252Z,2.90
2023-05-20T00:36:40.237Z,2.50
2023-05-20T00:39:07.298Z,2.70
2023-05-20T00:41:34.364Z,2.90
2023-05-20T00:44:01.397Z,3.10
2023-05-20T00:46:29.400Z,3.10
2023-05-20T00:48:56.588Z,3.20
2023-05-20T00:51:23.581Z,2.60
2023-05-20T00:53:50.893Z,2.90
2023-05-20T00:56:18.046Z,3.20
2023-05-20T00:58:45.049Z,2.90
2023-05-20T01:01:12.181Z,3.00
2023-05-20T01:03:40.078Z,3.00
2023-05-20T01:06:07.261Z,2.70
2023-05-20T01:08:34.385Z,3.30
2023-05-20T01:11:08.585Z,3.30
2023-05-20T01:13:39.496Z,2.70
2023-05-20T01:16:06.776Z,3.20
2023-05-20T01:18:33.805Z,3.10
2023-05-20T01:21:01.850Z,3.30
2023-05-20T01:23:42.433Z,2.90
2023-05-20T01:26:10.602Z,3.00
2023-05-20T01:28:38.882Z,3.00
2023-05-20T01:31:09.489Z,3.30
2023-05-20T01:33:39.897Z,3.20
2023-05-20T01:36:07.758Z,3.20
2023-05-20T01:38:34.744Z,3.30
2023-05-20T01:41:01.742Z,3.70
2023-05-20T01:43:28.790Z,3.80
2023-05-20T01:45:56.274Z,3.70
2023-05-20T01:48:23.332Z,3.50
2023-05-20T01:50:50.385Z,3.50
2023-05-20T01:53:17.396Z,3.90
2023-05-20T01:55:44.396Z,3.90
2023-05-20T01:58:11.519Z,3.90
2023-05-20T02:00:38.575Z,3.90
2023-05-20T02:03:05.793Z,4.00
2023-05-20T02:05:33.073Z,4.20
2023-05-20T02:08:00.271Z,3.80
2023-05-20T02:10:27.327Z,4.30
2023-05-20T02:12:54.316Z,4.30
2023-05-20T02:15:21.688Z,4.10
2023-05-20T02:17:49.638Z,4.20
2023-05-20T02:20:16.817Z,4.10
2023-05-20T02:22:43.897Z,4.10
2023-05-20T02:25:11.204Z,4.20
2023-05-20T02:27:38.712Z,5.00
2023-05-20T02:30:06.442Z,4.80
2023-05-20T02:32:33.941Z,5.10
2023-05-20T02:35:00.963Z,4.50
2023-05-20T02:37:29.056Z,4.80
2023-05-20T02:39:56.448Z,5.00
2023-05-20T02:42:23.536Z,4.90
2023-05-20T02:44:50.931Z,5.80
2023-05-20T02:47:18.348Z,5.40
2023-05-20T02:49:45.405Z,5.10
2023-05-20T02:52:12.540Z,5.20
2023-05-20T02:54:39.614Z,5.10
2023-05-20T02:57:06.799Z,5.20
2023-05-20T02:59:33.812Z,5.50
2023-05-20T03:02:00.971Z,5.60
2023-05-20T03:04:28.273Z,5.70
2023-05-20T03:06:57.969Z,5.40
2023-05-20T03:09:25.439Z,6.00
2023-05-20T03:11:52.481Z,5.00
2023-05-20T03:14:19.456Z,5.30
2023-05-20T03:16:46.554Z,5.70
2023-05-20T03:19:13.616Z,6.10
2023-05-20T03:21:41.398Z,5.70
2023-05-20T03:24:08.968Z,6.00
2023-05-20T03:26:37.835Z,5.80
2023-05-20T03:29:05.581Z,6.10
2023-05-20T03:31:32.974Z,5.30
2023-05-20T03:34:00.139Z,5.60
2023-05-20T03:36:27.380Z,6.20
2023-05-20T03:38:54.650Z,6.30
2023-05-20T03:41:22.514Z,6.10
2023-05-20T03:43:49.674Z,5.80
2023-05-20T03:46:16.872Z,7.20
2023-05-20T03:48:44.064Z,7.10
2023-05-20T03:51:11.512Z,6.70
2023-05-20T03:53:38.660Z,6.30
2023-05-20T03:56:05.841Z,6.30
2023-05-20T03:58:33.670Z,6.60
2023-05-20T04:01:00.756Z,6.20
2023-05-20T04:03:29.101Z,6.80
2023-05-20T04:05:56.429Z,6.60
2023-05-20T04:08:26.077Z,6.60
2023-05-20T04:10:57.105Z,7.40
2023-05-20T04:13:25.523Z,6.70
2023-05-20T04:15:53.350Z,7.10
2023-05-20T04:18:20.490Z,7.00
2023-05-20T04:20:47.601Z,7.40
2023-05-20T04:23:14.729Z,7.10
2023-05-20T04:25:42.341Z,6.70
2023-05-20T04:28:10.856Z,6.80
2023-05-20T04:30:37.893Z,7.40
2023-05-20T04:33:04.995Z,7.90
2023-05-20T04:35:32.561Z,8.30
2023-05-20T04:38:02.278Z,7.70
2023-05-20T04:40:29.408Z,7.80
2023-05-20T04:43:00.178Z,8.20
2023-05-20T04:45:27.232Z,8.50
2023-05-20T04:47:55.168Z,8.00
2023-05-20T04:50:22.494Z,7.70
2023-05-20T04:52:49.654Z,7.70
2023-05-20T04:55:17.027Z,7.30
2023-05-20T04:57:44.087Z,7.90
2023-05-20T05:00:12.755Z,7.60
2023-05-20T05:02:40.191Z,7.40
2023-05-20T05:05:07.779Z,7.60
2023-05-20T05:07:35.089Z,7.50
2023-05-20T05:10:02.130Z,7.40
2023-05-20T05:12:30.591Z,7.70
2023-05-20T05:14:58.984Z,7.50
2023-05-20T05:17:26.453Z,7.50
2023-05-20T05:19:53.492Z,7.30
2023-05-20T05:22:20.790Z,6.40
2023-05-20T05:24:49.174Z,6.80
2023-05-20T05:27:16.431Z,6.80
2023-05-20T05:29:43.445Z,6.80
2023-05-20T05:32:10.735Z,7.10
2023-05-20T05:34:38.022Z,7.10
2023-05-20T05:37:05.214Z,6.90
2023-05-20T05:39:32.830Z,7.50
2023-05-20T05:41:59.929Z,7.30
2023-05-20T05:44:28.269Z,7.30
2023-05-20T05:46:55.366Z,7.50
2023-05-20T05:49:22.467Z,7.40
2023-05-20T05:51:50.792Z,7.00
2023-05-20T05:54:18.423Z,6.90
2023-05-20T05:56:45.682Z,7.00
2023-05-20T05:59:13.036Z,7.20
2023-05-20T06:01:40.818Z,6.40
2023-05-20T06:04:08.013Z,6.60
2023-05-20T06:06:35.249Z,6.80
2023-05-20T06:09:02.238Z,7.00
2023-05-20T06:11:29.794Z,6.80
2023-05-20T06:13:56.883Z,6.40
2023-05-20T06:16:24.879Z,7.40
2023-05-20T06:18:53.438Z,7.20
2023-05-20T06:21:20.560Z,6.50
2023-05-20T06:23:47.568Z,6.10
2023-05-20T06:26:14.570Z,7.20
2023-05-20T06:28:42.280Z,6.00
2023-05-20T06:31:09.358Z,6.60
2023-05-20T06:33:36.941Z,6.00
2023-05-20T06:36:10.133Z,6.50
2023-05-20T06:38:37.156Z,6.30
2023-05-20T06:41:04.703Z,6.80
2023-05-20T06:43:33.084Z,6.90
2023-05-20T06:46:32.653Z,6.50
2023-05-20T06:49:06.046Z,6.00
2023-05-20T06:51:33.226Z,6.10
2023-05-20T06:54:01.050Z,6.20
2023-05-20T06:56:28.247Z,6.20
2023-05-20T06:58:55.745Z,6.90
2023-05-20T07:01:22.891Z,6.70
2023-05-20T07:03:50.284Z,6.50
2023-05-20T07:06:17.464Z,6.40
2023-05-20T07:08:44.766Z,6.60
2023-05-20T07:11:12.022Z,6.40
2023-05-20T07:13:39.183Z,6.20
2023-05-20T07:16:06.743Z,5.90
2023-05-20T07:18:34.900Z,5.70
2023-05-20T07:21:02.121Z,6.20
2023-05-20T07:23:49.436Z,6.20
2023-05-20T07:26:17.111Z,6.30
2023-05-20T07:28:45.785Z,6.20
2023-05-20T07:31:12.969Z,5.90
2023-05-20T07:33:43.604Z,5.50
2023-05-20T07:36:11.486Z,5.90
2023-05-20T07:38:41.319Z,6.20
2023-05-20T07:41:12.734Z,5.50
2023-05-20T07:43:40.449Z,5.10
2023-05-20T07:46:07.621Z,6.60
2023-05-20T07:48:34.849Z,6.50
2023-05-20T07:51:02.088Z,6.10
2023-05-20T07:53:29.209Z,5.90
2023-05-20T07:55:56.713Z,6.30
2023-05-20T07:58:24.880Z,5.70
2023-05-20T08:00:51.970Z,5.60
2023-05-20T08:03:19.762Z,5.60
2023-05-20T08:05:53.568Z,5.70
2023-05-20T08:08:20.637Z,5.90
2023-05-20T08:10:53.103Z,5.70
2023-05-20T08:13:20.703Z,5.80
2023-05-20T08:15:48.805Z,5.70
2023-05-20T08:18:16.077Z,5.80
2023-05-20T08:20:43.081Z,5.00
2023-05-20T08:23:10.333Z,5.00
2023-05-20T08:25:38.552Z,5.20
2023-05-20T08:28:06.930Z,5.70
2023-05-20T08:30:35.849Z,5.60
2023-05-20T08:33:03.082Z,5.30
2023-05-20T08:35:30.395Z,5.20
2023-05-20T08:37:57.713Z,5.80
2023-05-20T08:40:26.927Z,5.70
2023-05-20T08:42:54.215Z,4.80
2023-05-20T08:45:26.683Z,5.50
2023-05-20T08:47:54.246Z,4.90
2023-05-20T08:50:22.311Z,5.30
2023-05-20T08:52:49.471Z,5.00
2023-05-20T08:55:23.067Z,5.10
2023-05-20T08:57:54.794Z,4.80
2023-05-20T09:00:23.822Z,5.00
2023-05-20T09:02:52.173Z,4.50
2023-05-20T09:05:19.551Z,4.80
2023-05-20T09:07:46.622Z,4.40
2023-05-20T09:12:42.706Z,4.70
2023-05-20T09:15:11.122Z,4.40
2023-05-20T09:17:38.633Z,5.10
2023-05-20T09:20:10.540Z,4.50
2023-05-20T09:22:39.641Z,4.80
2023-05-20T09:25:09.015Z,5.70
2023-05-20T09:27:36.903Z,4.80
2023-05-20T09:30:06.921Z,4.30
2023-05-20T09:32:35.515Z,4.80
2023-05-20T09:35:04.045Z,4.60
2023-05-20T09:37:31.747Z,4.60
2023-05-20T09:40:00.638Z,4.30
2023-05-20T09:42:51.235Z,4.70
2023-05-20T09:45:18.293Z,5.20
2023-05-20T09:47:45.793Z,4.40
2023-05-20T09:50:13.421Z,5.10
2023-05-20T09:52:41.061Z,4.60
2023-05-20T09:55:10.022Z,4.50
2023-05-20T09:57:37.408Z,4.60
2023-05-20T10:00:05.803Z,4.70
2023-05-20T10:02:50.994Z,5.00
2023-05-20T10:05:23.775Z,5.00
2023-05-20T10:08:16.185Z,4.70
2023-05-20T10:11:12.314Z,4.60
2023-05-20T10:14:09.902Z,4.70
2023-05-20T10:17:14.402Z,4.20
2023-05-20T10:19:41.657Z,4.30
2023-05-20T10:22:09.744Z,5.50
2023-05-20T10:24:42.752Z,4.10
2023-05-20T10:27:11.297Z,4.80
2023-05-20T10:29:52.188Z,4.10
2023-05-20T10:32:48.144Z,4.40
2023-05-20T10:35:21.124Z,4.40
2023-05-20T10:37:48.200Z,4.20
2023-05-20T10:40:16.075Z,4.20
2023-05-20T10:42:44.615Z,4.70
2023-05-20T10:45:11.842Z,4.40
2023-05-20T10:47:53.143Z,4.80
2023-05-20T10:53:05.632Z,4.40
2023-05-20T10:55:39.842Z,5.00
2023-05-20T10:58:07.212Z,5.20
2023-05-20T11:00:36.771Z,4.60
2023-05-20T11:03:05.436Z,4.80
2023-05-20T11:05:33.098Z,5.10
2023-05-20T11:08:06.141Z,4.80
2023-05-20T11:10:38.058Z,4.70
2023-05-20T11:13:05.369Z,4.70
2023-05-20T11:15:33.223Z,4.80
2023-05-20T11:18:01.758Z,4.70
2023-05-20T11:20:29.604Z,4.00
2023-05-20T11:22:56.726Z,4.80
2023-05-20T11:25:23.987Z,4.80
2023-05-20T11:27:51.737Z,4.30
2023-05-20T11:30:20.111Z,4.10
2023-05-20T11:33:00.583Z,4.10
2023-05-20T11:35:29.792Z,3.90
2023-05-20T11:38:08.645Z,4.20
2023-05-20T11:40:42.751Z,4.10
2023-05-20T11:43:17.303Z,3.90
2023-05-20T11:45:45.500Z,3.60
2023-05-20T11:48:14.202Z,4.70
2023-05-20T11:50:42.779Z,3.50
2023-05-20T11:53:11.247Z,3.70
2023-05-20T11:56:07.997Z,4.10
2023-05-20T11:58:36.085Z,3.60
2023-05-20T12:01:14.016Z,3.50
2023-05-20T12:03:48.010Z,3.40
2023-05-20T12:06:16.994Z,3.70
2023-05-20T12:08:46.183Z,3.60
2023-05-20T12:11:13.217Z,3.70
2023-05-20T12:13:40.540Z,3.30
2023-05-20T12:16:07.765Z,3.50
2023-05-20T12:18:35.288Z,3.30
2023-05-20T12:21:05.509Z,4.60
2023-05-20T12:23:33.895Z,3.70
2023-05-20T12:26:01.134Z,3.80
2023-05-20T12:28:28.292Z,3.30
2023-05-20T12:30:56.245Z,3.40
2023-05-20T12:33:23.903Z,3.10
2023-05-20T12:35:51.179Z,3.20
2023-05-20T12:38:18.303Z,3.10
2023-05-20T12:40:45.556Z,3.20
2023-05-20T12:43:12.713Z,3.30
2023-05-20T12:45:40.981Z,4.00
2023-05-20T12:48:08.186Z,3.20
2023-05-20T12:50:36.083Z,3.70
2023-05-20T12:53:03.339Z,3.30
2023-05-20T12:55:30.946Z,3.80
2023-05-20T12:57:58.263Z,4.10
2023-05-20T13:00:25.442Z,3.50
2023-05-20T13:02:52.861Z,4.00
2023-05-20T13:05:20.127Z,3.00
2023-05-20T13:07:48.604Z,3.40
2023-05-20T13:10:16.780Z,3.40
2023-05-20T13:12:46.999Z,3.50
2023-05-20T13:15:14.997Z,3.30
2023-05-20T13:17:42.406Z,3.60
2023-05-20T13:20:10.716Z,3.80
2023-05-20T13:22:37.969Z,3.40
2023-05-20T13:25:06.334Z,3.30
2023-05-20T13:27:34.203Z,3.20
2023-05-20T13:30:01.959Z,3.00
2023-05-20T13:32:30.539Z,3.80
2023-05-20T13:34:59.227Z,4.00
2023-05-20T13:37:26.396Z,3.50
2023-05-20T13:39:53.550Z,3.60
2023-05-20T13:42:21.084Z,3.70
2023-05-20T13:44:48.349Z,4.40
2023-05-20T13:47:15.553Z,2.90
2023-05-20T13:49:42.841Z,3.40
2023-05-20T13:52:10.004Z,3.70
2023-05-20T13:54:37.346Z,3.70
2023-05-20T13:57:07.462Z,3.60
2023-05-20T13:59:34.914Z,3.80
2023-05-20T14:02:02.952Z,3.40
2023-05-20T14:04:39.048Z,3.40
2023-05-20T14:07:09.878Z,4.50
2023-05-20T14:09:37.670Z,3.00
2023-05-20T14:12:05.945Z,3.10
2023-05-20T14:14:33.589Z,3.60
2023-05-20T14:17:00.833Z,3.20
2023-05-20T14:19:29.371Z,3.50
2023-05-20T14:21:58.520Z,3.50
2023-05-20T14:24:26.392Z,3.60
2023-05-20T14:26:53.435Z,3.70
2023-05-20T14:29:20.690Z,3.30
2023-05-20T14:31:47.892Z,3.30
2023-05-20T14:34:14.978Z,3.60
2023-05-20T14:36:42.049Z,3.50
2023-05-20T14:39:09.480Z,3.60
2023-05-20T14:41:36.635Z,3.80
2023-05-20T14:44:03.892Z,3.40
2023-05-20T14:46:31.346Z,3.70
2023-05-20T14:48:58.294Z,3.90
2023-05-20T14:51:25.944Z,4.00
2023-05-20T14:53:53.197Z,3.50
2023-05-20T14:56:20.351Z,3.90
2023-05-20T14:58:47.598Z,3.70
2023-05-20T15:01:14.817Z,3.60
2023-05-20T15:03:42.053Z,3.50
2023-05-20T15:06:09.050Z,3.80
2023-05-20T15:08:36.588Z,3.70
2023-05-20T15:11:04.287Z,3.90
2023-05-20T15:13:32.334Z,3.80
2023-05-20T15:15:59.591Z,3.70
2023-05-20T15:18:26.843Z,3.60
2023-05-20T15:20:54.201Z,3.80
2023-05-20T15:23:21.560Z,3.70
2023-05-20T15:25:49.936Z,3.30
2023-05-20T15:28:19.243Z,3.40
2023-05-20T15:30:52.170Z,3.40
2023-05-20T15:33:19.248Z,3.70
2023-05-20T15:35:46.740Z,3.40
2023-05-20T15:38:14.393Z,3.50
2023-05-20T15:40:41.843Z,3.90
2023-05-20T15:43:08.997Z,3.70
2023-05-20T15:45:36.250Z,3.70
2023-05-20T15:48:03.720Z,3.70
2023-05-20T15:50:31.559Z,3.70
2023-05-20T15:52:58.827Z,3.50
2023-05-20T15:55:26.272Z,3.60
2023-05-20T15:57:53.446Z,3.40
2023-05-20T16:00:21.511Z,3.90
2023-05-20T16:02:48.752Z,3.60
2023-05-20T16:05:15.795Z,3.40
2023-05-20T16:07:43.043Z,3.50
2023-05-20T16:10:10.307Z,3.60
2023-05-20T16:12:37.865Z,3.40
2023-05-20T16:15:05.931Z,3.60
2023-05-20T16:17:33.118Z,3.80
2023-05-20T16:20:00.548Z,3.40
2023-05-20T16:22:27.989Z,3.60
2023-05-20T16:28:19.538Z,4.20
2023-05-20T16:30:46.885Z,3.40
2023-05-20T16:33:14.030Z,3.80
2023-05-20T16:35:41.140Z,3.80
2023-05-20T16:38:08.539Z,3.70
2023-05-20T16:40:36.173Z,3.40
2023-05-20T16:43:03.448Z,3.90
2023-05-20T16:45:30.846Z,4.10
2023-05-20T16:47:58.772Z,4.00
2023-05-20T16:50:25.929Z,4.30
2023-05-20T16:52:53.069Z,4.00
2023-05-20T16:55:20.326Z,3.40
2023-05-20T16:57:48.288Z,4.10
2023-05-20T17:00:15.647Z,4.00
2023-05-20T17:02:42.967Z,4.40
2023-05-20T17:05:10.377Z,4.00
2023-05-20T17:07:37.605Z,3.40
2023-05-20T17:10:05.367Z,3.70
2023-05-20T17:12:32.528Z,4.60
2023-05-20T17:14:59.675Z,3.80
2023-05-20T17:17:26.833Z,3.90
2023-05-20T17:19:54.073Z,3.40
2023-05-20T17:22:21.726Z,3.40
2023-05-20T17:24:48.877Z,3.30
2023-05-20T17:27:16.049Z,4.00
2023-05-20T17:29:43.204Z,3.80
2023-05-20T17:32:10.437Z,3.50
2023-05-20T17:34:37.680Z,3.60
2023-05-20T17:37:05.242Z,3.50
2023-05-20T17:39:32.401Z,3.20
2023-05-20T17:41:59.513Z,3.50
2023-05-20T17:44:26.918Z,3.40
2023-05-20T17:46:54.060Z,3.60
2023-05-20T17:49:21.599Z,3.60
2023-05-20T17:51:48.959Z,4.50
2023-05-20T17:54:16.418Z,8.10
2023-05-20T17:56:45.711Z,6.70
2023-05-20T17:59:12.880Z,5.50
2023-05-20T18:01:40.138Z,5.50
2023-05-20T18:04:07.434Z,5.00
2023-05-20T18:06:35.028Z,5.50
2023-05-20T18:09:02.484Z,5.40
2023-05-20T18:11:32.210Z,5.60
2023-05-20T18:14:02.314Z,6.20
2023-05-20T18:16:30.439Z,5.40
2023-05-20T18:18:57.866Z,5.50
2023-05-20T18:21:25.315Z,4.90
2023-05-20T18:23:52.547Z,4.50
2023-05-20T18:26:19.699Z,4.90
2023-05-20T18:28:46.859Z,4.60
2023-05-20T18:31:14.005Z,4.70
2023-05-20T18:33:41.457Z,4.80
2023-05-20T18:36:08.614Z,4.60
2023-05-20T18:38:35.970Z,5.30
2023-05-20T18:41:03.126Z,5.80
2023-05-20T18:43:30.462Z,5.60
2023-05-20T18:45:57.661Z,5.30
2023-05-20T18:48:27.143Z,5.20
2023-05-20T18:54:18.565Z,4.60
2023-05-20T18:56:48.708Z,4.50
2023-05-20T18:59:16.181Z,3.70
2023-05-20T19:01:43.273Z,4.10
2023-05-20T19:04:10.441Z,5.00
2023-05-20T19:06:37.885Z,4.60
2023-05-20T19:09:05.141Z,4.50
2023-05-20T19:11:32.484Z,4.20
2023-05-20T19:13:59.634Z,4.40
2023-05-20T19:16:27.157Z,4.40
2023-05-20T19:18:54.441Z,5.00
2023-05-20T19:21:22.111Z,4.30
2023-05-20T19:23:50.109Z,4.30
2023-05-20T19:26:18.008Z,4.60
2023-05-20T19:28:45.191Z,4.10
2023-05-20T19:31:12.406Z,4.40
2023-05-20T19:33:40.620Z,4.50
2023-05-20T19:36:07.769Z,4.30
2023-05-20T19:38:34.928Z,3.80
2023-05-20T19:41:02.067Z,4.60
2023-05-20T19:43:30.857Z,4.20
2023-05-20T19:45:58.168Z,3.70
2023-05-20T19:48:25.356Z,4.10
2023-05-20T19:50:52.612Z,4.40
2023-05-20T19:53:21.298Z,4.90
2023-05-20T19:55:48.442Z,4.40
2023-05-20T19:58:15.475Z,4.70
2023-05-20T20:00:42.743Z,4.40
2023-05-20T20:03:10.043Z,4.90
2023-05-20T20:05:37.631Z,5.50
2023-05-20T20:08:05.643Z,5.40
2023-05-20T20:10:34.554Z,6.40
2023-05-20T20:13:01.663Z,7.00
2023-05-20T20:15:30.862Z,6.10
2023-05-20T20:17:58.856Z,6.30
2023-05-20T20:20:27.207Z,6.10
2023-05-20T20:22:54.586Z,6.40
2023-05-20T20:25:22.044Z,6.40
2023-05-20T20:27:50.513Z,6.00
2023-05-20T20:30:17.853Z,6.20
2023-05-20T20:32:45.028Z,5.60
2023-05-20T20:35:12.269Z,6.50
2023-05-20T20:37:39.518Z,4.70
2023-05-20T20:40:09.847Z,4.10
2023-05-20T20:42:37.693Z,3.40
2023-05-20T20:45:05.364Z,3.70
2023-05-20T20:47:32.580Z,3.60
2023-05-20T20:49:59.776Z,3.50
2023-05-20T20:52:26.848Z,3.60
2023-05-20T20:54:53.968Z,3.80
2023-05-20T20:57:22.177Z,3.60
2023-05-20T20:59:51.338Z,3.90
2023-05-20T21:02:20.343Z,3.90
2023-05-20T21:04:47.782Z,4.10
2023-05-20T21:07:18.543Z,3.90
2023-05-20T21:09:45.936Z,3.20
